MSC Vanessa — HOWD — position and weather

sailwx.info

Track history (hours):
 
Tides and Currents Weather Stations Pressure Air Temp Water Temp Dewpoint Dewpoint Depression Visibility Wind Speed Wind Dir Waves Ship Positions

MSC Vanessa

Last reported at 2015-Jul-24 15:33 UTC. Time now 2015-Jul-30 08:13 UTC.
Position S 22°59' W 041°25'.

Length 300 m; draft 14.1 m.

Type: Ship (hazmat cat B). MMSI: 356946000.

Date/timePositionNaut miles runAvg speedWind from/ knotsBaromVisibWave heightAir tempDewpointWater temp
2015-Jul-24 15:33S 22°59' W 041°25'2218.2
2015-Jul-24 14:21S 23°15' W 041°41'23017.8
2015-Jul-24 01:26S 24°18' W 045°43'1517.5
2015-Jul-24 00:33S 24°22' W 045°59'1716.7
2015-Jul-23 23:34S 24°19' W 046°17'1515.0
2015-Jul-23 22:33S 24°05' W 046°22'8 7.6
2015-Jul-23 21:34S 23°59' W 046°17'5 0.1
2015-Jul-22 13:17S 23°55' W 046°21'3 4.6
2015-Jul-22 12:33S 23°57' W 046°18'7 6.6
2015-Jul-22 11:33S 24°03' W 046°21'8 8.2
2015-Jul-22 10:33S 24°11' W 046°25'1212.3
2015-Jul-22 09:33S 24°23' W 046°28'1313.4
2015-Jul-22 08:34S 24°35' W 046°33'1413.6
2015-Jul-22 07:32S 24°48' W 046°40'161 3.8
2015-Jul-20 13:29S 26°53' W 048°31'0 0.1
2015-Jul-20 12:29S 26°53' W 048°31'0 0.0
2015-Jul-20 11:29S 26°53' W 048°31'0 0.0
2015-Jul-20 08:29S 26°53' W 048°31'0 0.0
2015-Jul-20 07:29S 26°53' W 048°31'0 0.0
2015-Jul-20 06:29S 26°53' W 048°31'0 0.0
2015-Jul-20 03:29S 26°53' W 048°31'0 0.0
2015-Jul-20 02:29S 26°53' W 048°31'0 0.0
2015-Jul-20 00:29S 26°53' W 048°31'0 0.0
2015-Jul-19 23:29S 26°53' W 048°31'0 0.0
2015-Jul-19 22:29S 26°53' W 048°31'3 0.1
2015-Jul-18 18:33S 26°51' W 048°29'2919.2
2015-Jul-18 17:04S 26°27' W 048°12'  
2015-Jul-16 11:03S 24°43' W 046°45'1020.5
2015-Jul-16 10:33S 24°36' W 046°36'2120.7
2015-Jul-16 09:33S 24°17' W 046°27'1717.2
2015-Jul-16 08:33S 24°01' W 046°20'6 0.2
2015-Jul-15 04:31S 23°55' W 046°21'5 5.1
2015-Jul-15 03:34S 23°60' W 046°20'7 7.4
2015-Jul-15 02:33S 24°07' W 046°20'1 0.7
2015-Jul-15 01:33S 24°07' W 046°19'0 0.0
2015-Jul-15 00:34S 24°07' W 046°19'0 0.0
2015-Jul-14 23:33S 24°07' W 046°19'0 0.0
2015-Jul-14 22:34S 24°07' W 046°19'0 0.0
2015-Jul-14 21:32S 24°07' W 046°19'0 0.0
2015-Jul-14 20:33S 24°07' W 046°19'0 0.0
2015-Jul-14 19:33S 24°07' W 046°19'0 0.1
2015-Jul-14 18:33S 24°07' W 046°19'4 4.5
2015-Jul-14 17:33S 24°10' W 046°22'1313.2
2015-Jul-14 16:33S 24°21' W 046°14'1413.6
2015-Jul-14 15:33S 24°22' W 045°59'  
Track history (hours):
 
Tides and Currents Weather Stations Pressure Air Temp Water Temp Dewpoint Dewpoint Depression Visibility Wind Speed Wind Dir Waves Ship Positions

MSC Vanessa

Last reported at 2015-Jul-24 15:33 UTC. Time now 2015-Jul-30 08:13 UTC.
Position S 22°59' W 041°25'.

Length 300 m; draft 14.1 m.

Type: Ship (hazmat cat B). MMSI: 356946000.

Date/timePositionNaut miles runAvg speedWind from/ knotsBaromVisibWave heightAir tempDewpointWater temp
2015-Jul-24 15:33S 22°59' W 041°25'2218.2
2015-Jul-24 14:21S 23°15' W 041°41'23017.8
2015-Jul-24 01:26S 24°18' W 045°43'1517.5
2015-Jul-24 00:33S 24°22' W 045°59'1716.7
2015-Jul-23 23:34S 24°19' W 046°17'1515.0
2015-Jul-23 22:33S 24°05' W 046°22'8 7.6
2015-Jul-23 21:34S 23°59' W 046°17'5 0.1
2015-Jul-22 13:17S 23°55' W 046°21'3 4.6
2015-Jul-22 12:33S 23°57' W 046°18'7 6.6
2015-Jul-22 11:33S 24°03' W 046°21'8 8.2
2015-Jul-22 10:33S 24°11' W 046°25'1212.3
2015-Jul-22 09:33S 24°23' W 046°28'1313.4
2015-Jul-22 08:34S 24°35' W 046°33'1413.6
2015-Jul-22 07:32S 24°48' W 046°40'161 3.8
2015-Jul-20 13:29S 26°53' W 048°31'0 0.1
2015-Jul-20 12:29S 26°53' W 048°31'0 0.0
2015-Jul-20 11:29S 26°53' W 048°31'0 0.0
2015-Jul-20 08:29S 26°53' W 048°31'0 0.0
2015-Jul-20 07:29S 26°53' W 048°31'0 0.0
2015-Jul-20 06:29S 26°53' W 048°31'0 0.0
2015-Jul-20 03:29S 26°53' W 048°31'0 0.0
2015-Jul-20 02:29S 26°53' W 048°31'0 0.0
2015-Jul-20 00:29S 26°53' W 048°31'0 0.0
2015-Jul-19 23:29S 26°53' W 048°31'0 0.0
2015-Jul-19 22:29S 26°53' W 048°31'3 0.1
2015-Jul-18 18:33S 26°51' W 048°29'2919.2
2015-Jul-18 17:04S 26°27' W 048°12'  
2015-Jul-16 11:03S 24°43' W 046°45'1020.5
2015-Jul-16 10:33S 24°36' W 046°36'2120.7
2015-Jul-16 09:33S 24°17' W 046°27'1717.2
2015-Jul-16 08:33S 24°01' W 046°20'6 0.2
2015-Jul-15 04:31S 23°55' W 046°21'5 5.1
2015-Jul-15 03:34S 23°60' W 046°20'7 7.4
2015-Jul-15 02:33S 24°07' W 046°20'1 0.7
2015-Jul-15 01:33S 24°07' W 046°19'0 0.0
2015-Jul-15 00:34S 24°07' W 046°19'0 0.0
2015-Jul-14 23:33S 24°07' W 046°19'0 0.0
2015-Jul-14 22:34S 24°07' W 046°19'0 0.0
2015-Jul-14 21:32S 24°07' W 046°19'0 0.0
2015-Jul-14 20:33S 24°07' W 046°19'0 0.0
2015-Jul-14 19:33S 24°07' W 046°19'0 0.1
2015-Jul-14 18:33S 24°07' W 046°19'4 4.5
2015-Jul-14 17:33S 24°10' W 046°22'1313.2
2015-Jul-14 16:33S 24°21' W 046°14'1413.6
2015-Jul-14 15:33S 24°22' W 045°59'  

Dump ship's entire track history